sensor_id;sensor_type;location;lat;lon;timestamp;P1;durP1;ratioP1;P2;durP2;ratioP2
21120;SDS011;12519;43.318;21.898;2022-07-31T00:01:56;12.0;;;9.0;;
21120;SDS011;12519;43.318;21.898;2022-07-31T00:06:32;10.0;;;8.0;;
21120;SDS011;12519;43.318;21.898;2022-07-31T00:11:08;10.0;;;8.0;;
21120;SDS011;12519;43.318;21.898;2022-07-31T00:15:45;8.0;;;7.0;;
21120;SDS011;12519;43.318;21.898;2022-07-31T00:20:21;8.0;;;7.0;;
21120;SDS011;12519;43.318;21.898;2022-07-31T00:24:57;9.0;;;8.0;;
21120;SDS011;12519;43.318;21.898;2022-07-31T00:29:34;9.0;;;8.0;;
21120;SDS011;12519;43.318;21.898;2022-07-31T00:34:10;10.0;;;8.0;;
21120;SDS011;12519;43.318;21.898;2022-07-31T00:38:47;10.0;;;8.0;;
21120;SDS011;12519;43.318;21.898;2022-07-31T00:43:23;8.0;;;8.0;;
21120;SDS011;12519;43.318;21.898;2022-07-31T00:47:59;8.0;;;8.0;;
21120;SDS011;12519;43.318;21.898;2022-07-31T00:52:36;8.0;;;8.0;;
21120;SDS011;12519;43.318;21.898;2022-07-31T00:57:13;7.0;;;7.0;;
21120;SDS011;12519;43.318;21.898;2022-07-31T01:01:50;7.0;;;7.0;;
21120;SDS011;12519;43.318;21.898;2022-07-31T01:06:27;7.0;;;6.0;;
21120;SDS011;12519;43.318;21.898;2022-07-31T01:11:09;7.0;;;6.0;;
21120;SDS011;12519;43.318;21.898;2022-07-31T01:16:02;7.0;;;6.0;;
21120;SDS011;12519;43.318;21.898;2022-07-31T01:20:47;7.0;;;6.0;;
21120;SDS011;12519;43.318;21.898;2022-07-31T01:25:37;7.0;;;6.0;;
21120;SDS011;12519;43.318;21.898;2022-07-31T01:30:54;7.0;;;6.0;;
21120;SDS011;12519;43.318;21.898;2022-07-31T01:35:51;7.0;;;6.0;;
21120;SDS011;12519;43.318;21.898;2022-07-31T01:40:57;7.0;;;6.0;;
21120;SDS011;12519;43.318;21.898;2022-07-31T01:45:52;8.0;;;6.0;;
21120;SDS011;12519;43.318;21.898;2022-07-31T01:50:53;8.0;;;6.0;;
21120;SDS011;12519;43.318;21.898;2022-07-31T01:55:45;8.0;;;7.0;;
21120;SDS011;12519;43.318;21.898;2022-07-31T02:00:37;8.0;;;7.0;;
21120;SDS011;12519;43.318;21.898;2022-07-31T02:05:28;8.0;;;7.0;;
21120;SDS011;12519;43.318;21.898;2022-07-31T02:10:16;8.0;;;7.0;;
21120;SDS011;12519;43.318;21.898;2022-07-31T02:15:06;8.0;;;7.0;;
21120;SDS011;12519;43.318;21.898;2022-07-31T02:19:55;8.0;;;7.0;;
21120;SDS011;12519;43.318;21.898;2022-07-31T02:24:45;8.0;;;8.0;;
21120;SDS011;12519;43.318;21.898;2022-07-31T02:29:23;8.0;;;8.0;;
21120;SDS011;12519;43.318;21.898;2022-07-31T02:34:11;8.0;;;8.0;;
21120;SDS011;12519;43.318;21.898;2022-07-31T02:38:53;8.0;;;8.0;;
21120;SDS011;12519;43.318;21.898;2022-07-31T02:43:35;8.0;;;8.0;;
21120;SDS011;12519;43.318;21.898;2022-07-31T02:48:15;8.0;;;8.0;;
21120;SDS011;12519;43.318;21.898;2022-07-31T02:52:53;8.0;;;8.0;;
21120;SDS011;12519;43.318;21.898;2022-07-31T02:57:30;7.0;;;7.0;;
21120;SDS011;12519;43.318;21.898;2022-07-31T03:02:07;7.0;;;7.0;;
21120;SDS011;12519;43.318;21.898;2022-07-31T03:06:45;8.0;;;8.0;;
21120;SDS011;12519;43.318;21.898;2022-07-31T03:11:22;8.0;;;8.0;;
21120;SDS011;12519;43.318;21.898;2022-07-31T03:16:00;9.0;;;8.0;;
21120;SDS011;12519;43.318;21.898;2022-07-31T03:20:44;9.0;;;8.0;;
21120;SDS011;12519;43.318;21.898;2022-07-31T03:25:23;15.0;;;12.0;;
21120;SDS011;12519;43.318;21.898;2022-07-31T03:30:03;15.0;;;12.0;;
21120;SDS011;12519;43.318;21.898;2022-07-31T03:34:51;21.0;;;16.0;;
21120;SDS011;12519;43.318;21.898;2022-07-31T03:39:27;21.0;;;16.0;;
21120;SDS011;12519;43.318;21.898;2022-07-31T03:44:04;18.0;;;14.0;;
21120;SDS011;12519;43.318;21.898;2022-07-31T03:48:43;18.0;;;14.0;;
21120;SDS011;12519;43.318;21.898;2022-07-31T03:53:24;14.0;;;13.0;;
21120;SDS011;12519;43.318;21.898;2022-07-31T03:58:04;14.0;;;13.0;;
21120;SDS011;12519;43.318;21.898;2022-07-31T04:02:42;14.0;;;13.0;;
21120;SDS011;12519;43.318;21.898;2022-07-31T04:07:19;16.0;;;14.0;;
21120;SDS011;12519;43.318;21.898;2022-07-31T04:11:55;16.0;;;14.0;;
21120;SDS011;12519;43.318;21.898;2022-07-31T04:16:32;18.0;;;15.0;;
21120;SDS011;12519;43.318;21.898;2022-07-31T04:21:08;18.0;;;15.0;;
21120;SDS011;12519;43.318;21.898;2022-07-31T04:25:45;17.0;;;14.0;;
21120;SDS011;12519;43.318;21.898;2022-07-31T04:30:23;17.0;;;14.0;;
21120;SDS011;12519;43.318;21.898;2022-07-31T04:35:01;16.0;;;13.0;;
21120;SDS011;12519;43.318;21.898;2022-07-31T04:39:43;16.0;;;13.0;;
21120;SDS011;12519;43.318;21.898;2022-07-31T04:44:21;16.0;;;14.0;;
21120;SDS011;12519;43.318;21.898;2022-07-31T04:48:58;16.0;;;14.0;;
21120;SDS011;12519;43.318;21.898;2022-07-31T04:53:36;17.0;;;15.0;;
21120;SDS011;12519;43.318;21.898;2022-07-31T04:58:13;17.0;;;15.0;;
21120;SDS011;12519;43.318;21.898;2022-07-31T05:02:50;17.0;;;15.0;;
21120;SDS011;12519;43.318;21.898;2022-07-31T05:07:28;16.0;;;14.0;;
21120;SDS011;12519;43.318;21.898;2022-07-31T05:12:05;16.0;;;14.0;;
21120;SDS011;12519;43.318;21.898;2022-07-31T05:16:44;16.0;;;14.0;;
21120;SDS011;12519;43.318;21.898;2022-07-31T05:21:24;16.0;;;14.0;;
21120;SDS011;12519;43.318;21.898;2022-07-31T05:26:03;16.0;;;14.0;;
21120;SDS011;12519;43.318;21.898;2022-07-31T05:30:41;16.0;;;14.0;;
21120;SDS011;12519;43.318;21.898;2022-07-31T05:35:18;16.0;;;14.0;;
21120;SDS011;12519;43.318;21.898;2022-07-31T05:39:54;16.0;;;14.0;;
21120;SDS011;12519;43.318;21.898;2022-07-31T05:44:30;14.0;;;12.0;;
21120;SDS011;12519;43.318;21.898;2022-07-31T05:49:07;14.0;;;12.0;;
21120;SDS011;12519;43.318;21.898;2022-07-31T05:53:43;11.0;;;9.0;;
21120;SDS011;12519;43.318;21.898;2022-07-31T05:58:20;11.0;;;9.0;;
21120;SDS011;12519;43.318;21.898;2022-07-31T06:02:56;11.0;;;9.0;;
21120;SDS011;12519;43.318;21.898;2022-07-31T06:07:32;15.0;;;12.0;;
21120;SDS011;12519;43.318;21.898;2022-07-31T06:12:09;15.0;;;12.0;;
21120;SDS011;12519;43.318;21.898;2022-07-31T06:16:46;19.0;;;14.0;;
21120;SDS011;12519;43.318;21.898;2022-07-31T06:21:22;19.0;;;14.0;;
21120;SDS011;12519;43.318;21.898;2022-07-31T06:25:58;16.0;;;14.0;;
21120;SDS011;12519;43.318;21.898;2022-07-31T06:30:34;16.0;;;14.0;;
21120;SDS011;12519;43.318;21.898;2022-07-31T06:35:11;14.0;;;13.0;;
21120;SDS011;12519;43.318;21.898;2022-07-31T06:39:47;14.0;;;13.0;;
21120;SDS011;12519;43.318;21.898;2022-07-31T06:44:24;15.0;;;13.0;;
21120;SDS011;12519;43.318;21.898;2022-07-31T06:49:01;15.0;;;13.0;;
21120;SDS011;12519;43.318;21.898;2022-07-31T06:53:38;16.0;;;13.0;;
21120;SDS011;12519;43.318;21.898;2022-07-31T06:58:15;16.0;;;13.0;;
21120;SDS011;12519;43.318;21.898;2022-07-31T07:02:51;16.0;;;13.0;;
21120;SDS011;12519;43.318;21.898;2022-07-31T07:07:28;17.0;;;14.0;;
21120;SDS011;12519;43.318;21.898;2022-07-31T07:12:06;17.0;;;14.0;;
21120;SDS011;12519;43.318;21.898;2022-07-31T07:16:45;18.0;;;14.0;;
21120;SDS011;12519;43.318;21.898;2022-07-31T07:21:22;18.0;;;14.0;;
21120;SDS011;12519;43.318;21.898;2022-07-31T07:25:59;17.0;;;14.0;;
21120;SDS011;12519;43.318;21.898;2022-07-31T07:30:37;17.0;;;14.0;;
21120;SDS011;12519;43.318;21.898;2022-07-31T07:35:14;16.0;;;14.0;;
21120;SDS011;12519;43.318;21.898;2022-07-31T07:39:52;16.0;;;14.0;;
21120;SDS011;12519;43.318;21.898;2022-07-31T07:44:29;16.0;;;14.0;;
21120;SDS011;12519;43.318;21.898;2022-07-31T07:49:06;16.0;;;14.0;;
21120;SDS011;12519;43.318;21.898;2022-07-31T07:53:43;15.0;;;14.0;;
21120;SDS011;12519;43.318;21.898;2022-07-31T07:58:20;15.0;;;14.0;;
21120;SDS011;12519;43.318;21.898;2022-07-31T08:02:57;15.0;;;14.0;;
21120;SDS011;12519;43.318;21.898;2022-07-31T08:07:36;17.0;;;15.0;;
21120;SDS011;12519;43.318;21.898;2022-07-31T08:12:18;17.0;;;15.0;;
21120;SDS011;12519;43.318;21.898;2022-07-31T08:16:54;19.0;;;16.0;;
21120;SDS011;12519;43.318;21.898;2022-07-31T08:21:31;19.0;;;16.0;;
21120;SDS011;12519;43.318;21.898;2022-07-31T08:26:08;18.0;;;16.0;;
21120;SDS011;12519;43.318;21.898;2022-07-31T08:30:45;18.0;;;16.0;;
21120;SDS011;12519;43.318;21.898;2022-07-31T08:35:21;17.0;;;15.0;;
21120;SDS011;12519;43.318;21.898;2022-07-31T08:39:57;17.0;;;15.0;;
21120;SDS011;12519;43.318;21.898;2022-07-31T08:44:34;17.0;;;16.0;;
21120;SDS011;12519;43.318;21.898;2022-07-31T08:49:14;17.0;;;16.0;;
21120;SDS011;12519;43.318;21.898;2022-07-31T08:53:59;17.0;;;16.0;;
21120;SDS011;12519;43.318;21.898;2022-07-31T08:58:45;17.0;;;16.0;;
21120;SDS011;12519;43.318;21.898;2022-07-31T09:03:22;17.0;;;16.0;;
21120;SDS011;12519;43.318;21.898;2022-07-31T09:07:59;18.0;;;16.0;;
21120;SDS011;12519;43.318;21.898;2022-07-31T09:12:39;18.0;;;16.0;;
21120;SDS011;12519;43.318;21.898;2022-07-31T09:17:16;18.0;;;17.0;;
21120;SDS011;12519;43.318;21.898;2022-07-31T09:22:04;18.0;;;17.0;;
21120;SDS011;12519;43.318;21.898;2022-07-31T09:27:00;20.0;;;17.0;;
21120;SDS011;12519;43.318;21.898;2022-07-31T09:31:44;20.0;;;17.0;;
21120;SDS011;12519;43.318;21.898;2022-07-31T09:36:21;21.0;;;17.0;;
21120;SDS011;12519;43.318;21.898;2022-07-31T09:41:07;21.0;;;17.0;;
21120;SDS011;12519;43.318;21.898;2022-07-31T09:45:55;18.0;;;16.0;;
21120;SDS011;12519;43.318;21.898;2022-07-31T09:50:51;18.0;;;16.0;;
21120;SDS011;12519;43.318;21.898;2022-07-31T09:55:47;16.0;;;14.0;;
21120;SDS011;12519;43.318;21.898;2022-07-31T10:00:32;16.0;;;14.0;;
21120;SDS011;12519;43.318;21.898;2022-07-31T10:05:13;17.0;;;14.0;;
21120;SDS011;12519;43.318;21.898;2022-07-31T10:10:03;17.0;;;14.0;;
21120;SDS011;12519;43.318;21.898;2022-07-31T10:14:52;18.0;;;15.0;;
21120;SDS011;12519;43.318;21.898;2022-07-31T10:19:59;18.0;;;15.0;;
21120;SDS011;12519;43.318;21.898;2022-07-31T10:25:00;16.0;;;14.0;;
21120;SDS011;12519;43.318;21.898;2022-07-31T10:29:58;16.0;;;14.0;;
21120;SDS011;12519;43.318;21.898;2022-07-31T10:34:39;15.0;;;14.0;;
21120;SDS011;12519;43.318;21.898;2022-07-31T10:39:19;15.0;;;14.0;;
21120;SDS011;12519;43.318;21.898;2022-07-31T10:44:43;15.0;;;14.0;;
21120;SDS011;12519;43.318;21.898;2022-07-31T10:49:46;15.0;;;14.0;;
21120;SDS011;12519;43.318;21.898;2022-07-31T10:54:24;15.0;;;14.0;;
21120;SDS011;12519;43.318;21.898;2022-07-31T10:59:12;15.0;;;14.0;;
21120;SDS011;12519;43.318;21.898;2022-07-31T11:03:52;15.0;;;14.0;;
21120;SDS011;12519;43.318;21.898;2022-07-31T11:08:41;14.0;;;13.0;;
21120;SDS011;12519;43.318;21.898;2022-07-31T11:13:28;14.0;;;13.0;;
21120;SDS011;12519;43.318;21.898;2022-07-31T11:18:13;14.0;;;12.0;;
21120;SDS011;12519;43.318;21.898;2022-07-31T11:22:57;14.0;;;12.0;;
21120;SDS011;12519;43.318;21.898;2022-07-31T11:27:41;16.0;;;14.0;;
21120;SDS011;12519;43.318;21.898;2022-07-31T11:32:18;16.0;;;14.0;;
21120;SDS011;12519;43.318;21.898;2022-07-31T11:36:55;19.0;;;15.0;;
21120;SDS011;12519;43.318;21.898;2022-07-31T11:41:32;19.0;;;15.0;;
21120;SDS011;12519;43.318;21.898;2022-07-31T11:46:09;16.0;;;14.0;;
21120;SDS011;12519;43.318;21.898;2022-07-31T11:50:53;16.0;;;14.0;;
21120;SDS011;12519;43.318;21.898;2022-07-31T11:55:30;12.0;;;12.0;;
21120;SDS011;12519;43.318;21.898;2022-07-31T12:00:27;12.0;;;12.0;;
21120;SDS011;12519;43.318;21.898;2022-07-31T12:05:04;12.0;;;11.0;;
21120;SDS011;12519;43.318;21.898;2022-07-31T12:09:48;12.0;;;11.0;;
21120;SDS011;12519;43.318;21.898;2022-07-31T12:14:27;11.0;;;10.0;;
21120;SDS011;12519;43.318;21.898;2022-07-31T12:19:14;11.0;;;10.0;;
21120;SDS011;12519;43.318;21.898;2022-07-31T12:24:10;11.0;;;10.0;;
21120;SDS011;12519;43.318;21.898;2022-07-31T12:28:58;12.0;;;10.0;;
21120;SDS011;12519;43.318;21.898;2022-07-31T12:33:47;12.0;;;10.0;;
21120;SDS011;12519;43.318;21.898;2022-07-31T12:38:24;13.0;;;11.0;;
21120;SDS011;12519;43.318;21.898;2022-07-31T12:43:03;13.0;;;11.0;;
21120;SDS011;12519;43.318;21.898;2022-07-31T12:47:40;12.0;;;10.0;;
21120;SDS011;12519;43.318;21.898;2022-07-31T12:52:17;12.0;;;10.0;;
21120;SDS011;12519;43.318;21.898;2022-07-31T12:56:57;10.0;;;10.0;;
21120;SDS011;12519;43.318;21.898;2022-07-31T13:01:35;10.0;;;10.0;;
21120;SDS011;12519;43.318;21.898;2022-07-31T13:06:14;11.0;;;11.0;;
21120;SDS011;12519;43.318;21.898;2022-07-31T13:10:51;11.0;;;11.0;;
21120;SDS011;12519;43.318;21.898;2022-07-31T13:15:28;12.0;;;12.0;;
21120;SDS011;12519;43.318;21.898;2022-07-31T13:20:05;12.0;;;12.0;;
21120;SDS011;12519;43.318;21.898;2022-07-31T13:24:46;12.0;;;12.0;;
21120;SDS011;12519;43.318;21.898;2022-07-31T13:29:23;12.0;;;12.0;;
21120;SDS011;12519;43.318;21.898;2022-07-31T13:34:00;12.0;;;12.0;;
21120;SDS011;12519;43.318;21.898;2022-07-31T13:38:36;12.0;;;11.0;;
21120;SDS011;12519;43.318;21.898;2022-07-31T13:43:13;12.0;;;11.0;;
21120;SDS011;12519;43.318;21.898;2022-07-31T13:47:49;12.0;;;10.0;;
21120;SDS011;12519;43.318;21.898;2022-07-31T13:52:26;12.0;;;10.0;;
21120;SDS011;12519;43.318;21.898;2022-07-31T13:57:03;12.0;;;10.0;;
21120;SDS011;12519;43.318;21.898;2022-07-31T14:01:39;12.0;;;10.0;;
21120;SDS011;12519;43.318;21.898;2022-07-31T14:06:18;12.0;;;10.0;;
21120;SDS011;12519;43.318;21.898;2022-07-31T14:10:54;12.0;;;10.0;;
21120;SDS011;12519;43.318;21.898;2022-07-31T14:15:32;11.0;;;10.0;;
21120;SDS011;12519;43.318;21.898;2022-07-31T14:20:10;11.0;;;10.0;;
21120;SDS011;12519;43.318;21.898;2022-07-31T14:24:49;10.0;;;9.0;;
21120;SDS011;12519;43.318;21.898;2022-07-31T14:29:26;10.0;;;9.0;;
21120;SDS011;12519;43.318;21.898;2022-07-31T14:34:03;10.0;;;9.0;;
21120;SDS011;12519;43.318;21.898;2022-07-31T14:38:39;8.0;;;8.0;;
21120;SDS011;12519;43.318;21.898;2022-07-31T14:43:16;8.0;;;8.0;;
21120;SDS011;12519;43.318;21.898;2022-07-31T14:47:53;10.0;;;9.0;;
21120;SDS011;12519;43.318;21.898;2022-07-31T14:52:30;10.0;;;9.0;;
21120;SDS011;12519;43.318;21.898;2022-07-31T14:57:08;11.0;;;10.0;;
21120;SDS011;12519;43.318;21.898;2022-07-31T15:01:45;11.0;;;10.0;;
21120;SDS011;12519;43.318;21.898;2022-07-31T15:06:22;10.0;;;9.0;;
21120;SDS011;12519;43.318;21.898;2022-07-31T15:10:59;10.0;;;9.0;;
21120;SDS011;12519;43.318;21.898;2022-07-31T15:15:37;8.0;;;8.0;;
21120;SDS011;12519;43.318;21.898;2022-07-31T15:20:14;8.0;;;8.0;;
21120;SDS011;12519;43.318;21.898;2022-07-31T15:24:52;8.0;;;8.0;;
21120;SDS011;12519;43.318;21.898;2022-07-31T15:29:30;8.0;;;8.0;;
21120;SDS011;12519;43.318;21.898;2022-07-31T15:34:08;8.0;;;8.0;;
21120;SDS011;12519;43.318;21.898;2022-07-31T15:38:45;9.0;;;9.0;;
21120;SDS011;12519;43.318;21.898;2022-07-31T15:43:22;9.0;;;9.0;;
21120;SDS011;12519;43.318;21.898;2022-07-31T15:47:59;10.0;;;10.0;;
21120;SDS011;12519;43.318;21.898;2022-07-31T15:52:37;10.0;;;10.0;;
21120;SDS011;12519;43.318;21.898;2022-07-31T15:57:17;11.0;;;11.0;;
21120;SDS011;12519;43.318;21.898;2022-07-31T16:01:56;11.0;;;11.0;;
21120;SDS011;12519;43.318;21.898;2022-07-31T16:06:33;10.0;;;10.0;;
21120;SDS011;12519;43.318;21.898;2022-07-31T16:11:09;10.0;;;10.0;;
21120;SDS011;12519;43.318;21.898;2022-07-31T16:15:46;8.0;;;8.0;;
21120;SDS011;12519;43.318;21.898;2022-07-31T16:20:22;8.0;;;8.0;;
21120;SDS011;12519;43.318;21.898;2022-07-31T16:24:59;8.0;;;8.0;;
21120;SDS011;12519;43.318;21.898;2022-07-31T16:29:36;8.0;;;8.0;;
21120;SDS011;12519;43.318;21.898;2022-07-31T16:34:15;8.0;;;8.0;;
21120;SDS011;12519;43.318;21.898;2022-07-31T16:38:52;7.0;;;7.0;;
21120;SDS011;12519;43.318;21.898;2022-07-31T16:43:30;7.0;;;7.0;;
21120;SDS011;12519;43.318;21.898;2022-07-31T16:48:06;10.0;;;8.0;;
21120;SDS011;12519;43.318;21.898;2022-07-31T16:52:42;10.0;;;8.0;;
21120;SDS011;12519;43.318;21.898;2022-07-31T16:57:19;14.0;;;10.0;;
21120;SDS011;12519;43.318;21.898;2022-07-31T17:01:56;14.0;;;10.0;;
21120;SDS011;12519;43.318;21.898;2022-07-31T17:06:32;14.0;;;10.0;;
21120;SDS011;12519;43.318;21.898;2022-07-31T17:11:11;14.0;;;10.0;;
21120;SDS011;12519;43.318;21.898;2022-07-31T17:15:47;13.0;;;11.0;;
21120;SDS011;12519;43.318;21.898;2022-07-31T17:20:24;13.0;;;11.0;;
21120;SDS011;12519;43.318;21.898;2022-07-31T17:25:02;11.0;;;10.0;;
21120;SDS011;12519;43.318;21.898;2022-07-31T17:29:44;11.0;;;10.0;;
21120;SDS011;12519;43.318;21.898;2022-07-31T17:34:21;11.0;;;10.0;;
21120;SDS011;12519;43.318;21.898;2022-07-31T17:38:58;9.0;;;9.0;;
21120;SDS011;12519;43.318;21.898;2022-07-31T17:43:36;9.0;;;9.0;;
21120;SDS011;12519;43.318;21.898;2022-07-31T17:48:13;9.0;;;8.0;;
21120;SDS011;12519;43.318;21.898;2022-07-31T17:52:51;9.0;;;8.0;;
21120;SDS011;12519;43.318;21.898;2022-07-31T17:57:28;9.0;;;8.0;;
21120;SDS011;12519;43.318;21.898;2022-07-31T18:02:05;9.0;;;8.0;;
21120;SDS011;12519;43.318;21.898;2022-07-31T18:06:44;8.0;;;8.0;;
21120;SDS011;12519;43.318;21.898;2022-07-31T18:11:21;8.0;;;8.0;;
21120;SDS011;12519;43.318;21.898;2022-07-31T18:16:00;8.0;;;8.0;;
21120;SDS011;12519;43.318;21.898;2022-07-31T18:20:39;8.0;;;8.0;;
21120;SDS011;12519;43.318;21.898;2022-07-31T18:25:17;9.0;;;8.0;;
21120;SDS011;12519;43.318;21.898;2022-07-31T18:29:54;9.0;;;8.0;;
21120;SDS011;12519;43.318;21.898;2022-07-31T18:34:31;9.0;;;8.0;;
21120;SDS011;12519;43.318;21.898;2022-07-31T18:39:08;10.0;;;8.0;;
21120;SDS011;12519;43.318;21.898;2022-07-31T18:43:45;10.0;;;8.0;;
21120;SDS011;12519;43.318;21.898;2022-07-31T18:48:22;12.0;;;10.0;;
21120;SDS011;12519;43.318;21.898;2022-07-31T18:52:58;12.0;;;10.0;;
21120;SDS011;12519;43.318;21.898;2022-07-31T18:57:35;13.0;;;12.0;;
21120;SDS011;12519;43.318;21.898;2022-07-31T19:02:12;13.0;;;12.0;;
21120;SDS011;12519;43.318;21.898;2022-07-31T19:06:48;13.0;;;12.0;;
21120;SDS011;12519;43.318;21.898;2022-07-31T19:11:24;13.0;;;12.0;;
21120;SDS011;12519;43.318;21.898;2022-07-31T19:16:01;13.0;;;12.0;;
21120;SDS011;12519;43.318;21.898;2022-07-31T19:20:41;13.0;;;12.0;;
21120;SDS011;12519;43.318;21.898;2022-07-31T19:25:19;14.0;;;12.0;;
21120;SDS011;12519;43.318;21.898;2022-07-31T19:29:55;14.0;;;12.0;;
21120;SDS011;12519;43.318;21.898;2022-07-31T19:34:32;14.0;;;12.0;;
21120;SDS011;12519;43.318;21.898;2022-07-31T19:39:09;14.0;;;13.0;;
21120;SDS011;12519;43.318;21.898;2022-07-31T19:43:46;14.0;;;13.0;;
21120;SDS011;12519;43.318;21.898;2022-07-31T19:48:22;12.0;;;11.0;;
21120;SDS011;12519;43.318;21.898;2022-07-31T19:53:00;12.0;;;11.0;;
21120;SDS011;12519;43.318;21.898;2022-07-31T19:57:36;10.0;;;9.0;;
21120;SDS011;12519;43.318;21.898;2022-07-31T20:02:13;10.0;;;9.0;;
21120;SDS011;12519;43.318;21.898;2022-07-31T20:06:49;10.0;;;9.0;;
21120;SDS011;12519;43.318;21.898;2022-07-31T20:11:26;10.0;;;9.0;;
21120;SDS011;12519;43.318;21.898;2022-07-31T20:16:03;9.0;;;9.0;;
21120;SDS011;12519;43.318;21.898;2022-07-31T20:20:41;9.0;;;9.0;;
21120;SDS011;12519;43.318;21.898;2022-07-31T20:25:18;10.0;;;9.0;;
21120;SDS011;12519;43.318;21.898;2022-07-31T20:29:56;10.0;;;9.0;;
21120;SDS011;12519;43.318;21.898;2022-07-31T20:34:33;10.0;;;9.0;;
21120;SDS011;12519;43.318;21.898;2022-07-31T20:39:11;10.0;;;9.0;;
21120;SDS011;12519;43.318;21.898;2022-07-31T20:43:48;10.0;;;9.0;;
21120;SDS011;12519;43.318;21.898;2022-07-31T20:48:26;11.0;;;10.0;;
21120;SDS011;12519;43.318;21.898;2022-07-31T20:53:05;11.0;;;10.0;;
21120;SDS011;12519;43.318;21.898;2022-07-31T20:57:43;12.0;;;10.0;;
21120;SDS011;12519;43.318;21.898;2022-07-31T21:02:20;12.0;;;10.0;;
21120;SDS011;12519;43.318;21.898;2022-07-31T21:06:58;11.0;;;10.0;;
21120;SDS011;12519;43.318;21.898;2022-07-31T21:11:35;11.0;;;10.0;;
21120;SDS011;12519;43.318;21.898;2022-07-31T21:16:12;10.0;;;10.0;;
21120;SDS011;12519;43.318;21.898;2022-07-31T21:20:49;10.0;;;10.0;;
21120;SDS011;12519;43.318;21.898;2022-07-31T21:25:26;10.0;;;10.0;;
21120;SDS011;12519;43.318;21.898;2022-07-31T21:30:07;10.0;;;10.0;;
21120;SDS011;12519;43.318;21.898;2022-07-31T21:34:46;10.0;;;10.0;;
21120;SDS011;12519;43.318;21.898;2022-07-31T21:39:25;10.0;;;10.0;;
21120;SDS011;12519;43.318;21.898;2022-07-31T21:44:04;10.0;;;10.0;;
21120;SDS011;12519;43.318;21.898;2022-07-31T21:48:43;11.0;;;10.0;;
21120;SDS011;12519;43.318;21.898;2022-07-31T21:53:22;11.0;;;10.0;;
21120;SDS011;12519;43.318;21.898;2022-07-31T21:57:59;12.0;;;11.0;;
21120;SDS011;12519;43.318;21.898;2022-07-31T22:02:36;12.0;;;11.0;;
21120;SDS011;12519;43.318;21.898;2022-07-31T22:07:12;11.0;;;10.0;;
21120;SDS011;12519;43.318;21.898;2022-07-31T22:11:49;11.0;;;10.0;;
21120;SDS011;12519;43.318;21.898;2022-07-31T22:16:28;10.0;;;9.0;;
21120;SDS011;12519;43.318;21.898;2022-07-31T22:21:05;10.0;;;9.0;;
21120;SDS011;12519;43.318;21.898;2022-07-31T22:25:45;10.0;;;8.0;;
21120;SDS011;12519;43.318;21.898;2022-07-31T22:30:25;10.0;;;8.0;;
21120;SDS011;12519;43.318;21.898;2022-07-31T22:35:06;10.0;;;8.0;;
21120;SDS011;12519;43.318;21.898;2022-07-31T22:39:49;9.0;;;8.0;;
21120;SDS011;12519;43.318;21.898;2022-07-31T22:44:27;9.0;;;8.0;;
21120;SDS011;12519;43.318;21.898;2022-07-31T22:49:05;13.0;;;10.0;;
21120;SDS011;12519;43.318;21.898;2022-07-31T22:53:47;13.0;;;10.0;;
21120;SDS011;12519;43.318;21.898;2022-07-31T22:58:24;17.0;;;13.0;;
21120;SDS011;12519;43.318;21.898;2022-07-31T23:03:01;17.0;;;13.0;;
21120;SDS011;12519;43.318;21.898;2022-07-31T23:07:38;16.0;;;13.0;;
21120;SDS011;12519;43.318;21.898;2022-07-31T23:12:15;16.0;;;13.0;;
21120;SDS011;12519;43.318;21.898;2022-07-31T23:16:53;14.0;;;13.0;;
21120;SDS011;12519;43.318;21.898;2022-07-31T23:21:31;14.0;;;13.0;;
21120;SDS011;12519;43.318;21.898;2022-07-31T23:26:09;12.0;;;11.0;;
21120;SDS011;12519;43.318;21.898;2022-07-31T23:30:46;12.0;;;11.0;;
21120;SDS011;12519;43.318;21.898;2022-07-31T23:35:24;12.0;;;11.0;;
21120;SDS011;12519;43.318;21.898;2022-07-31T23:40:01;11.0;;;9.0;;
21120;SDS011;12519;43.318;21.898;2022-07-31T23:44:46;11.0;;;9.0;;
21120;SDS011;12519;43.318;21.898;2022-07-31T23:49:23;10.0;;;9.0;;
21120;SDS011;12519;43.318;21.898;2022-07-31T23:54:00;10.0;;;9.0;;
21120;SDS011;12519;43.318;21.898;2022-07-31T23:58:37;9.0;;;9.0;;
